Delta Poseidon — SVBF6 — position and weather

sailwx.info

Track history (hours):
 
Tides and Currents Weather Stations Pressure Air Temp Water Temp Dewpoint Dewpoint Depression Visibility Wind Speed Wind Dir Waves Ship Positions

Delta Poseidon

Last reported at 2016-Jul-23 19:23 UTC. Time now 2016-Jul-26 08:25 UTC.
Position N 36°20' W 006°28'.

Length 274 m; draft 9 m.

Type: Tanker. MMSI: 241086000.

Date/timePositionNaut miles runAvg speedWind from/ knotsBaromVisibWave heightAir tempDewpointWater temp
2016-Jul-23 19:23N 36°20' W 006°28'0 0.0
2016-Jul-23 18:26N 36°20' W 006°28'0 0.0
2016-Jul-23 17:11N 36°20' W 006°28'0 0.0
2016-Jul-22 19:29N 36°20' W 006°28'0 0.2
2016-Jul-22 18:30N 36°20' W 006°28'2 2.2
2016-Jul-22 17:33N 36°21' W 006°30'3 2.5
2016-Jul-22 16:32N 36°23' W 006°33'12 1.5
2016-Jul-22 08:30N 36°33' W 006°42'2 2.6
2016-Jul-22 07:33N 36°35' W 006°42'2 0.1
2016-Jul-21 18:09N 36°37' W 006°42'0 0.0
2016-Jul-20 23:15N 36°37' W 006°42'0 0.0
2016-Jul-20 22:18N 36°37' W 006°42'28 0.6
2016-Jul-18 22:06N 36°10' W 006°32'12 3.3
2016-Jul-18 18:22N 36°02' W 006°20'11 1.0
2016-Jul-18 08:14N 36°10' W 006°28'5 0.6
2016-Jul-17 23:33N 36°15' W 006°30'3 3.3
2016-Jul-17 22:34N 36°12' W 006°28'3 3.5
2016-Jul-17 21:33N 36°09' W 006°25'36 5.0
2016-Jul-17 14:19N 35°58' W 005°43'911.9
2016-Jul-17 13:33N 35°59' W 005°32'1010.1
2016-Jul-17 12:33N 36°06' W 005°24'3 3.1
2016-Jul-17 11:33N 36°09' W 005°25'0 0.0
2016-Jul-17 10:33N 36°10' W 005°25'0 0.0
2016-Jul-17 09:33N 36°09' W 005°25'0 0.0
2016-Jul-17 08:33N 36°10' W 005°25'0 0.0
2016-Jul-17 07:30N 36°09' W 005°25'0 0.0
2016-Jul-17 06:33N 36°09' W 005°25'0 0.0
2016-Jul-17 04:33N 36°09' W 005°25'0 0.0
2016-Jul-17 03:30N 36°09' W 005°25'0 0.0
2016-Jul-17 02:33N 36°09' W 005°25'0 0.0
2016-Jul-17 01:33N 36°09' W 005°25'0 0.0
2016-Jul-17 00:33N 36°09' W 005°25'0 0.0
2016-Jul-16 23:33N 36°09' W 005°25'0 0.0
2016-Jul-16 22:33N 36°09' W 005°25'1 0.0
2016-Jul-15 19:32N 36°10' W 005°25'0 0.2
2016-Jul-15 18:05N 36°10' W 005°25'0 0.7
2016-Jul-15 17:29N 36°09' W 005°25'0 0.1
2016-Jul-15 16:32N 36°09' W 005°25'0 0.1
2016-Jul-15 15:32N 36°09' W 005°25'0 0.0
2016-Jul-15 14:32N 36°09' W 005°25'0 0.0
2016-Jul-15 13:29N 36°09' W 005°25'0 0.1
2016-Jul-15 12:29N 36°09' W 005°25'0 0.1
2016-Jul-15 11:29N 36°09' W 005°25'0 0.1
2016-Jul-15 10:29N 36°10' W 005°25'0 0.0
2016-Jul-15 09:32N 36°10' W 005°25'0 0.0
2016-Jul-15 08:32N 36°10' W 005°25'0 0.0
2016-Jul-15 07:29N 36°10' W 005°25'0 0.1
2016-Jul-15 06:32N 36°09' W 005°25'0 0.0
2016-Jul-15 05:32N 36°09' W 005°25'0 0.0
2016-Jul-15 04:32N 36°09' W 005°25'0 0.2
2016-Jul-15 03:32N 36°09' W 005°25'0 0.1
2016-Jul-15 02:29N 36°09' W 005°24'0 0.1
2016-Jul-15 01:32N 36°09' W 005°24'0 0.0
2016-Jul-15 00:23N 36°09' W 005°24'0 0.0
2016-Jul-14 23:32N 36°09' W 005°24'0 0.1
2016-Jul-14 22:32N 36°09' W 005°24'0 0.0
2016-Jul-14 21:32N 36°09' W 005°24'0 0.1
2016-Jul-14 20:32N 36°10' W 005°25'0 0.1
2016-Jul-14 19:32N 36°10' W 005°24'0 0.1
2016-Jul-14 18:32N 36°10' W 005°25'0 0.1
2016-Jul-14 17:32N 36°09' W 005°25'0 0.0
2016-Jul-14 16:32N 36°10' W 005°25'0 0.0
2016-Jul-14 15:32N 36°09' W 005°25'0 0.1
2016-Jul-14 14:32N 36°09' W 005°25'0 0.1
2016-Jul-14 13:32N 36°09' W 005°25'0 0.0
2016-Jul-14 12:29N 36°09' W 005°25'0 0.0
2016-Jul-14 11:32N 36°09' W 005°25'0 0.0
2016-Jul-14 10:32N 36°09' W 005°25'0 0.1
2016-Jul-14 09:29N 36°10' W 005°25'0 0.1
2016-Jul-14 08:32N 36°10' W 005°24'0 0.0
2016-Jul-14 07:29N 36°10' W 005°24'0 0.1
2016-Jul-14 06:32N 36°10' W 005°25'0 0.0
2016-Jul-14 04:32N 36°09' W 005°25'0 0.1
2016-Jul-14 03:32N 36°09' W 005°25'0 0.2
2016-Jul-14 02:23N 36°09' W 005°25'0 0.1
2016-Jul-14 01:26N 36°09' W 005°24'0 0.0
2016-Jul-14 00:29N 36°09' W 005°25'0 0.1
2016-Jul-13 23:32N 36°09' W 005°25'0 0.0
2016-Jul-13 22:29N 36°09' W 005°25'0 0.2
2016-Jul-13 21:32N 36°09' W 005°24'0 0.1
2016-Jul-13 20:32N 36°09' W 005°24'0 0.0
2016-Jul-13 19:32N 36°09' W 005°24'  
Track history (hours):
 
Tides and Currents Weather Stations Pressure Air Temp Water Temp Dewpoint Dewpoint Depression Visibility Wind Speed Wind Dir Waves Ship Positions

Delta Poseidon

Last reported at 2016-Jul-23 19:23 UTC. Time now 2016-Jul-26 08:25 UTC.
Position N 36°20' W 006°28'.

Length 274 m; draft 9 m.

Type: Tanker. MMSI: 241086000.

Date/timePositionNaut miles runAvg speedWind from/ knotsBaromVisibWave heightAir tempDewpointWater temp
2016-Jul-23 19:23N 36°20' W 006°28'0 0.0
2016-Jul-23 18:26N 36°20' W 006°28'0 0.0
2016-Jul-23 17:11N 36°20' W 006°28'0 0.0
2016-Jul-22 19:29N 36°20' W 006°28'0 0.2
2016-Jul-22 18:30N 36°20' W 006°28'2 2.2
2016-Jul-22 17:33N 36°21' W 006°30'3 2.5
2016-Jul-22 16:32N 36°23' W 006°33'12 1.5
2016-Jul-22 08:30N 36°33' W 006°42'2 2.6
2016-Jul-22 07:33N 36°35' W 006°42'2 0.1
2016-Jul-21 18:09N 36°37' W 006°42'0 0.0
2016-Jul-20 23:15N 36°37' W 006°42'0 0.0
2016-Jul-20 22:18N 36°37' W 006°42'28 0.6
2016-Jul-18 22:06N 36°10' W 006°32'12 3.3
2016-Jul-18 18:22N 36°02' W 006°20'11 1.0
2016-Jul-18 08:14N 36°10' W 006°28'5 0.6
2016-Jul-17 23:33N 36°15' W 006°30'3 3.3
2016-Jul-17 22:34N 36°12' W 006°28'3 3.5
2016-Jul-17 21:33N 36°09' W 006°25'36 5.0
2016-Jul-17 14:19N 35°58' W 005°43'911.9
2016-Jul-17 13:33N 35°59' W 005°32'1010.1
2016-Jul-17 12:33N 36°06' W 005°24'3 3.1
2016-Jul-17 11:33N 36°09' W 005°25'0 0.0
2016-Jul-17 10:33N 36°10' W 005°25'0 0.0
2016-Jul-17 09:33N 36°09' W 005°25'0 0.0
2016-Jul-17 08:33N 36°10' W 005°25'0 0.0
2016-Jul-17 07:30N 36°09' W 005°25'0 0.0
2016-Jul-17 06:33N 36°09' W 005°25'0 0.0
2016-Jul-17 04:33N 36°09' W 005°25'0 0.0
2016-Jul-17 03:30N 36°09' W 005°25'0 0.0
2016-Jul-17 02:33N 36°09' W 005°25'0 0.0
2016-Jul-17 01:33N 36°09' W 005°25'0 0.0
2016-Jul-17 00:33N 36°09' W 005°25'0 0.0
2016-Jul-16 23:33N 36°09' W 005°25'0 0.0
2016-Jul-16 22:33N 36°09' W 005°25'1 0.0
2016-Jul-15 19:32N 36°10' W 005°25'0 0.2
2016-Jul-15 18:05N 36°10' W 005°25'0 0.7
2016-Jul-15 17:29N 36°09' W 005°25'0 0.1
2016-Jul-15 16:32N 36°09' W 005°25'0 0.1
2016-Jul-15 15:32N 36°09' W 005°25'0 0.0
2016-Jul-15 14:32N 36°09' W 005°25'0 0.0
2016-Jul-15 13:29N 36°09' W 005°25'0 0.1
2016-Jul-15 12:29N 36°09' W 005°25'0 0.1
2016-Jul-15 11:29N 36°09' W 005°25'0 0.1
2016-Jul-15 10:29N 36°10' W 005°25'0 0.0
2016-Jul-15 09:32N 36°10' W 005°25'0 0.0
2016-Jul-15 08:32N 36°10' W 005°25'0 0.0
2016-Jul-15 07:29N 36°10' W 005°25'0 0.1
2016-Jul-15 06:32N 36°09' W 005°25'0 0.0
2016-Jul-15 05:32N 36°09' W 005°25'0 0.0
2016-Jul-15 04:32N 36°09' W 005°25'0 0.2
2016-Jul-15 03:32N 36°09' W 005°25'0 0.1
2016-Jul-15 02:29N 36°09' W 005°24'0 0.1
2016-Jul-15 01:32N 36°09' W 005°24'0 0.0
2016-Jul-15 00:23N 36°09' W 005°24'0 0.0
2016-Jul-14 23:32N 36°09' W 005°24'0 0.1
2016-Jul-14 22:32N 36°09' W 005°24'0 0.0
2016-Jul-14 21:32N 36°09' W 005°24'0 0.1
2016-Jul-14 20:32N 36°10' W 005°25'0 0.1
2016-Jul-14 19:32N 36°10' W 005°24'0 0.1
2016-Jul-14 18:32N 36°10' W 005°25'0 0.1
2016-Jul-14 17:32N 36°09' W 005°25'0 0.0
2016-Jul-14 16:32N 36°10' W 005°25'0 0.0
2016-Jul-14 15:32N 36°09' W 005°25'0 0.1
2016-Jul-14 14:32N 36°09' W 005°25'0 0.1
2016-Jul-14 13:32N 36°09' W 005°25'0 0.0
2016-Jul-14 12:29N 36°09' W 005°25'0 0.0
2016-Jul-14 11:32N 36°09' W 005°25'0 0.0
2016-Jul-14 10:32N 36°09' W 005°25'0 0.1
2016-Jul-14 09:29N 36°10' W 005°25'0 0.1
2016-Jul-14 08:32N 36°10' W 005°24'0 0.0
2016-Jul-14 07:29N 36°10' W 005°24'0 0.1
2016-Jul-14 06:32N 36°10' W 005°25'0 0.0
2016-Jul-14 04:32N 36°09' W 005°25'0 0.1
2016-Jul-14 03:32N 36°09' W 005°25'0 0.2
2016-Jul-14 02:23N 36°09' W 005°25'0 0.1
2016-Jul-14 01:26N 36°09' W 005°24'0 0.0
2016-Jul-14 00:29N 36°09' W 005°25'0 0.1
2016-Jul-13 23:32N 36°09' W 005°25'0 0.0
2016-Jul-13 22:29N 36°09' W 005°25'0 0.2
2016-Jul-13 21:32N 36°09' W 005°24'0 0.1
2016-Jul-13 20:32N 36°09' W 005°24'0 0.0
2016-Jul-13 19:32N 36°09' W 005°24'  

Dump ship's entire track history